sensor_id;sensor_type;location;lat;lon;timestamp;P1;durP1;ratioP1;P2;durP2;ratioP2
48006;SDS011;33771;48.180;11.400;2023-03-15T00:01:27;3.00;;;1.30;;
48006;SDS011;33771;48.180;11.400;2023-03-15T00:04:05;3.27;;;1.57;;
48006;SDS011;33771;48.180;11.400;2023-03-15T00:06:31;4.13;;;1.50;;
48006;SDS011;33771;48.180;11.400;2023-03-15T00:08:58;4.10;;;1.50;;
48006;SDS011;33771;48.180;11.400;2023-03-15T00:11:28;4.07;;;1.70;;
48006;SDS011;33771;48.180;11.400;2023-03-15T00:13:57;3.20;;;1.50;;
48006;SDS011;33771;48.180;11.400;2023-03-15T00:16:23;5.67;;;1.70;;
48006;SDS011;33771;48.180;11.400;2023-03-15T00:18:52;3.07;;;1.50;;
48006;SDS011;33771;48.180;11.400;2023-03-15T00:21:18;2.77;;;1.43;;
48006;SDS011;33771;48.180;11.400;2023-03-15T00:23:47;3.27;;;1.53;;
48006;SDS011;33771;48.180;11.400;2023-03-15T00:26:24;6.35;;;1.67;;
48006;SDS011;33771;48.180;11.400;2023-03-15T00:28:50;3.87;;;1.30;;
48006;SDS011;33771;48.180;11.400;2023-03-15T00:31:18;4.00;;;1.67;;
48006;SDS011;33771;48.180;11.400;2023-03-15T00:33:56;3.20;;;1.60;;
48006;SDS011;33771;48.180;11.400;2023-03-15T00:36:22;4.13;;;1.63;;
48006;SDS011;33771;48.180;11.400;2023-03-15T00:38:56;4.20;;;1.70;;
48006;SDS011;33771;48.180;11.400;2023-03-15T00:41:24;4.07;;;1.70;;
48006;SDS011;33771;48.180;11.400;2023-03-15T00:43:57;3.10;;;1.63;;
48006;SDS011;33771;48.180;11.400;2023-03-15T00:46:31;3.30;;;1.50;;
48006;SDS011;33771;48.180;11.400;2023-03-15T00:48:59;2.97;;;1.73;;
48006;SDS011;33771;48.180;11.400;2023-03-15T00:51:27;1.87;;;1.53;;
48006;SDS011;33771;48.180;11.400;2023-03-15T00:54:06;2.30;;;1.60;;
48006;SDS011;33771;48.180;11.400;2023-03-15T00:56:35;1.87;;;1.53;;
48006;SDS011;33771;48.180;11.400;2023-03-15T00:59:03;2.60;;;1.40;;
48006;SDS011;33771;48.180;11.400;2023-03-15T01:01:30;3.83;;;1.77;;
48006;SDS011;33771;48.180;11.400;2023-03-15T01:04:06;2.17;;;1.37;;
48006;SDS011;33771;48.180;11.400;2023-03-15T01:06:32;1.87;;;1.40;;
48006;SDS011;33771;48.180;11.400;2023-03-15T01:08:57;2.23;;;1.20;;
48006;SDS011;33771;48.180;11.400;2023-03-15T01:11:34;1.90;;;1.37;;
48006;SDS011;33771;48.180;11.400;2023-03-15T01:14:02;1.40;;;1.10;;
48006;SDS011;33771;48.180;11.400;2023-03-15T01:16:29;1.50;;;1.10;;
48006;SDS011;33771;48.180;11.400;2023-03-15T01:18:55;1.63;;;1.30;;
48006;SDS011;33771;48.180;11.400;2023-03-15T01:21:21;2.80;;;1.40;;
48006;SDS011;33771;48.180;11.400;2023-03-15T01:23:47;2.60;;;1.37;;
48006;SDS011;33771;48.180;11.400;2023-03-15T01:26:14;1.77;;;1.20;;
48006;SDS011;33771;48.180;11.400;2023-03-15T01:28:40;1.60;;;1.07;;
48006;SDS011;33771;48.180;11.400;2023-03-15T01:31:16;2.37;;;1.20;;
48006;SDS011;33771;48.180;11.400;2023-03-15T01:33:46;1.50;;;1.17;;
48006;SDS011;33771;48.180;11.400;2023-03-15T01:36:12;2.13;;;1.30;;
48006;SDS011;33771;48.180;11.400;2023-03-15T01:38:38;1.27;;;1.03;;
48006;SDS011;33771;48.180;11.400;2023-03-15T01:41:04;1.37;;;1.20;;
48006;SDS011;33771;48.180;11.400;2023-03-15T01:43:30;2.20;;;1.50;;
48006;SDS011;33771;48.180;11.400;2023-03-15T01:46:03;1.83;;;1.40;;
48006;SDS011;33771;48.180;11.400;2023-03-15T01:48:36;1.70;;;1.20;;
48006;SDS011;33771;48.180;11.400;2023-03-15T01:51:06;2.47;;;1.40;;
48006;SDS011;33771;48.180;11.400;2023-03-15T01:53:38;1.13;;;1.03;;
48006;SDS011;33771;48.180;11.400;2023-03-15T01:56:08;2.13;;;1.20;;
48006;SDS011;33771;48.180;11.400;2023-03-15T01:58:34;1.57;;;1.20;;
48006;SDS011;33771;48.180;11.400;2023-03-15T02:01:02;1.60;;;1.17;;
48006;SDS011;33771;48.180;11.400;2023-03-15T02:03:29;2.00;;;1.40;;
48006;SDS011;33771;48.180;11.400;2023-03-15T02:06:01;4.87;;;1.50;;
48006;SDS011;33771;48.180;11.400;2023-03-15T02:08:32;1.87;;;1.40;;
48006;SDS011;33771;48.180;11.400;2023-03-15T02:11:02;2.00;;;1.30;;
48006;SDS011;33771;48.180;11.400;2023-03-15T02:13:29;2.93;;;1.80;;
48006;SDS011;33771;48.180;11.400;2023-03-15T02:15:57;2.27;;;1.70;;
48006;SDS011;33771;48.180;11.400;2023-03-15T02:18:25;2.40;;;1.80;;
48006;SDS011;33771;48.180;11.400;2023-03-15T02:23:31;2.53;;;1.73;;
48006;SDS011;33771;48.180;11.400;2023-03-15T02:28:47;2.57;;;2.30;;
48006;SDS011;33771;48.180;11.400;2023-03-15T02:31:13;3.03;;;2.03;;
48006;SDS011;33771;48.180;11.400;2023-03-15T02:33:44;2.77;;;2.47;;
48006;SDS011;33771;48.180;11.400;2023-03-15T02:38:47;2.70;;;2.40;;
48006;SDS011;33771;48.180;11.400;2023-03-15T02:41:14;2.50;;;2.23;;
48006;SDS011;33771;48.180;11.400;2023-03-15T02:43:51;2.70;;;2.10;;
48006;SDS011;33771;48.180;11.400;2023-03-15T02:46:19;5.53;;;2.40;;
48006;SDS011;33771;48.180;11.400;2023-03-15T02:48:46;3.40;;;2.10;;
48006;SDS011;33771;48.180;11.400;2023-03-15T02:51:22;3.40;;;2.43;;
48006;SDS011;33771;48.180;11.400;2023-03-15T02:53:51;4.60;;;2.53;;
48006;SDS011;33771;48.180;11.400;2023-03-15T02:56:16;5.70;;;2.77;;
48006;SDS011;33771;48.180;11.400;2023-03-15T02:58:42;4.33;;;2.47;;
48006;SDS011;33771;48.180;11.400;2023-03-15T03:01:11;5.03;;;2.80;;
48006;SDS011;33771;48.180;11.400;2023-03-15T03:03:38;4.23;;;2.43;;
48006;SDS011;33771;48.180;11.400;2023-03-15T03:06:05;3.07;;;2.20;;
48006;SDS011;33771;48.180;11.400;2023-03-15T03:08:30;2.83;;;2.23;;
48006;SDS011;33771;48.180;11.400;2023-03-15T03:10:56;3.30;;;2.30;;
48006;SDS011;33771;48.180;11.400;2023-03-15T03:13:21;3.50;;;2.37;;
48006;SDS011;33771;48.180;11.400;2023-03-15T03:15:48;3.27;;;2.20;;
48006;SDS011;33771;48.180;11.400;2023-03-15T03:20:54;4.83;;;2.40;;
48006;SDS011;33771;48.180;11.400;2023-03-15T03:23:21;3.87;;;2.40;;
48006;SDS011;33771;48.180;11.400;2023-03-15T03:25:51;5.13;;;2.50;;
48006;SDS011;33771;48.180;11.400;2023-03-15T03:28:18;5.10;;;2.70;;
48006;SDS011;33771;48.180;11.400;2023-03-15T03:30:48;7.73;;;3.00;;
48006;SDS011;33771;48.180;11.400;2023-03-15T03:33:14;4.83;;;2.80;;
48006;SDS011;33771;48.180;11.400;2023-03-15T03:35:40;6.13;;;2.93;;
48006;SDS011;33771;48.180;11.400;2023-03-15T03:38:06;5.10;;;2.80;;
48006;SDS011;33771;48.180;11.400;2023-03-15T03:40:32;6.70;;;2.87;;
48006;SDS011;33771;48.180;11.400;2023-03-15T03:42:58;5.07;;;3.03;;
48006;SDS011;33771;48.180;11.400;2023-03-15T03:45:23;4.93;;;2.70;;
48006;SDS011;33771;48.180;11.400;2023-03-15T03:47:49;3.93;;;2.43;;
48006;SDS011;33771;48.180;11.400;2023-03-15T03:50:15;4.80;;;2.57;;
48006;SDS011;33771;48.180;11.400;2023-03-15T03:52:43;3.53;;;2.57;;
48006;SDS011;33771;48.180;11.400;2023-03-15T03:55:09;3.90;;;2.77;;
48006;SDS011;33771;48.180;11.400;2023-03-15T03:57:39;5.23;;;2.93;;
48006;SDS011;33771;48.180;11.400;2023-03-15T04:00:05;4.67;;;2.87;;
48006;SDS011;33771;48.180;11.400;2023-03-15T04:02:32;3.87;;;2.80;;
48006;SDS011;33771;48.180;11.400;2023-03-15T04:04:58;4.03;;;3.10;;
48006;SDS011;33771;48.180;11.400;2023-03-15T04:07:24;5.40;;;3.53;;
48006;SDS011;33771;48.180;11.400;2023-03-15T04:09:49;7.20;;;2.93;;
48006;SDS011;33771;48.180;11.400;2023-03-15T04:12:17;4.70;;;3.07;;
48006;SDS011;33771;48.180;11.400;2023-03-15T04:14:42;4.93;;;3.03;;
48006;SDS011;33771;48.180;11.400;2023-03-15T04:17:08;4.23;;;2.73;;
48006;SDS011;33771;48.180;11.400;2023-03-15T04:19:34;3.60;;;2.90;;
48006;SDS011;33771;48.180;11.400;2023-03-15T04:22:00;4.20;;;3.73;;
48006;SDS011;33771;48.180;11.400;2023-03-15T04:24:31;4.67;;;3.47;;
48006;SDS011;33771;48.180;11.400;2023-03-15T04:27:00;5.97;;;3.70;;
48006;SDS011;33771;48.180;11.400;2023-03-15T04:29:26;5.87;;;4.30;;
48006;SDS011;33771;48.180;11.400;2023-03-15T04:31:52;8.63;;;4.40;;
48006;SDS011;33771;48.180;11.400;2023-03-15T04:34:18;5.30;;;3.83;;
48006;SDS011;33771;48.180;11.400;2023-03-15T04:36:43;8.00;;;3.97;;
48006;SDS011;33771;48.180;11.400;2023-03-15T04:39:09;7.03;;;3.20;;
48006;SDS011;33771;48.180;11.400;2023-03-15T04:41:37;6.13;;;3.20;;
48006;SDS011;33771;48.180;11.400;2023-03-15T04:44:03;7.50;;;3.23;;
48006;SDS011;33771;48.180;11.400;2023-03-15T04:46:32;5.20;;;2.50;;
48006;SDS011;33771;48.180;11.400;2023-03-15T04:48:58;6.87;;;3.03;;
48006;SDS011;33771;48.180;11.400;2023-03-15T04:51:24;4.03;;;2.40;;
48006;SDS011;33771;48.180;11.400;2023-03-15T04:53:49;6.27;;;2.47;;
48006;SDS011;33771;48.180;11.400;2023-03-15T04:56:15;7.17;;;2.80;;
48006;SDS011;33771;48.180;11.400;2023-03-15T04:58:40;6.10;;;2.33;;
48006;SDS011;33771;48.180;11.400;2023-03-15T05:01:06;7.53;;;2.33;;
48006;SDS011;33771;48.180;11.400;2023-03-15T05:03:31;3.50;;;2.10;;
48006;SDS011;33771;48.180;11.400;2023-03-15T05:05:57;5.30;;;2.63;;
48006;SDS011;33771;48.180;11.400;2023-03-15T05:08:22;4.77;;;2.20;;
48006;SDS011;33771;48.180;11.400;2023-03-15T05:10:48;6.87;;;2.60;;
48006;SDS011;33771;48.180;11.400;2023-03-15T05:13:13;6.30;;;2.50;;
48006;SDS011;33771;48.180;11.400;2023-03-15T05:15:39;6.57;;;2.70;;
48006;SDS011;33771;48.180;11.400;2023-03-15T05:18:05;5.27;;;2.30;;
48006;SDS011;33771;48.180;11.400;2023-03-15T05:20:30;7.13;;;2.63;;
48006;SDS011;33771;48.180;11.400;2023-03-15T05:22:56;9.10;;;3.10;;
48006;SDS011;33771;48.180;11.400;2023-03-15T05:25:22;8.10;;;2.77;;
48006;SDS011;33771;48.180;11.400;2023-03-15T05:30:19;7.63;;;2.60;;
48006;SDS011;33771;48.180;11.400;2023-03-15T05:32:45;8.87;;;3.03;;
48006;SDS011;33771;48.180;11.400;2023-03-15T05:35:11;6.23;;;2.87;;
48006;SDS011;33771;48.180;11.400;2023-03-15T05:37:37;5.73;;;3.03;;
48006;SDS011;33771;48.180;11.400;2023-03-15T05:40:03;7.50;;;3.47;;
48006;SDS011;33771;48.180;11.400;2023-03-15T05:42:34;10.50;;;3.50;;
48006;SDS011;33771;48.180;11.400;2023-03-15T05:45:00;8.13;;;3.10;;
48006;SDS011;33771;48.180;11.400;2023-03-15T05:47:26;7.03;;;3.40;;
48006;SDS011;33771;48.180;11.400;2023-03-15T05:49:51;10.07;;;3.50;;
48006;SDS011;33771;48.180;11.400;2023-03-15T05:52:17;9.00;;;4.50;;
48006;SDS011;33771;48.180;11.400;2023-03-15T05:54:42;10.27;;;3.10;;
48006;SDS011;33771;48.180;11.400;2023-03-15T05:57:08;6.67;;;3.47;;
48006;SDS011;33771;48.180;11.400;2023-03-15T05:59:34;11.57;;;4.23;;
48006;SDS011;33771;48.180;11.400;2023-03-15T06:02:02;7.63;;;3.63;;
48006;SDS011;33771;48.180;11.400;2023-03-15T06:04:28;7.97;;;3.43;;
48006;SDS011;33771;48.180;11.400;2023-03-15T06:06:53;7.20;;;3.43;;
48006;SDS011;33771;48.180;11.400;2023-03-15T06:09:22;7.20;;;3.73;;
48006;SDS011;33771;48.180;11.400;2023-03-15T06:11:57;7.10;;;3.53;;
48006;SDS011;33771;48.180;11.400;2023-03-15T06:14:34;11.03;;;4.93;;
48006;SDS011;33771;48.180;11.400;2023-03-15T06:16:59;7.97;;;4.07;;
48006;SDS011;33771;48.180;11.400;2023-03-15T06:19:28;7.63;;;4.30;;
48006;SDS011;33771;48.180;11.400;2023-03-15T06:22:03;9.93;;;4.23;;
48006;SDS011;33771;48.180;11.400;2023-03-15T06:24:31;8.83;;;3.83;;
48006;SDS011;33771;48.180;11.400;2023-03-15T06:27:03;10.80;;;4.17;;
48006;SDS011;33771;48.180;11.400;2023-03-15T06:29:36;9.27;;;4.77;;
48006;SDS011;33771;48.180;11.400;2023-03-15T06:32:04;8.77;;;4.53;;
48006;SDS011;33771;48.180;11.400;2023-03-15T06:34:30;7.60;;;4.50;;
48006;SDS011;33771;48.180;11.400;2023-03-15T06:37:06;9.23;;;4.63;;
48006;SDS011;33771;48.180;11.400;2023-03-15T06:39:31;10.70;;;4.23;;
48006;SDS011;33771;48.180;11.400;2023-03-15T06:41:59;8.90;;;4.80;;
48006;SDS011;33771;48.180;11.400;2023-03-15T06:44:29;8.77;;;4.80;;
48006;SDS011;33771;48.180;11.400;2023-03-15T06:47:02;9.77;;;5.37;;
48006;SDS011;33771;48.180;11.400;2023-03-15T06:49:27;7.73;;;5.03;;
48006;SDS011;33771;48.180;11.400;2023-03-15T06:51:55;10.53;;;5.40;;
48006;SDS011;33771;48.180;11.400;2023-03-15T06:54:21;11.53;;;5.33;;
48006;SDS011;33771;48.180;11.400;2023-03-15T06:56:49;11.67;;;6.57;;
48006;SDS011;33771;48.180;11.400;2023-03-15T06:59:15;13.77;;;6.60;;
48006;SDS011;33771;48.180;11.400;2023-03-15T07:01:40;12.80;;;6.10;;
48006;SDS011;33771;48.180;11.400;2023-03-15T07:04:06;14.33;;;6.67;;
48006;SDS011;33771;48.180;11.400;2023-03-15T07:06:33;13.00;;;7.20;;
48006;SDS011;33771;48.180;11.400;2023-03-15T07:09:07;12.07;;;6.77;;
48006;SDS011;33771;48.180;11.400;2023-03-15T07:11:32;11.07;;;5.93;;
48006;SDS011;33771;48.180;11.400;2023-03-15T07:14:00;12.93;;;6.80;;
48006;SDS011;33771;48.180;11.400;2023-03-15T07:16:26;13.07;;;7.10;;
48006;SDS011;33771;48.180;11.400;2023-03-15T07:18:51;10.47;;;5.83;;
48006;SDS011;33771;48.180;11.400;2023-03-15T07:21:20;13.63;;;7.23;;
48006;SDS011;33771;48.180;11.400;2023-03-15T07:23:46;11.70;;;7.30;;
48006;SDS011;33771;48.180;11.400;2023-03-15T07:26:11;12.83;;;7.23;;
48006;SDS011;33771;48.180;11.400;2023-03-15T07:28:37;12.80;;;7.60;;
48006;SDS011;33771;48.180;11.400;2023-03-15T07:31:03;17.13;;;8.30;;
48006;SDS011;33771;48.180;11.400;2023-03-15T07:33:30;11.77;;;7.27;;
48006;SDS011;33771;48.180;11.400;2023-03-15T07:35:57;13.10;;;7.03;;
48006;SDS011;33771;48.180;11.400;2023-03-15T07:38:24;15.67;;;7.97;;
48006;SDS011;33771;48.180;11.400;2023-03-15T07:40:52;14.37;;;7.30;;
48006;SDS011;33771;48.180;11.400;2023-03-15T07:43:18;13.33;;;8.50;;
48006;SDS011;33771;48.180;11.400;2023-03-15T07:45:44;16.57;;;7.63;;
48006;SDS011;33771;48.180;11.400;2023-03-15T07:48:10;14.17;;;7.73;;
48006;SDS011;33771;48.180;11.400;2023-03-15T07:50:35;12.47;;;7.80;;
48006;SDS011;33771;48.180;11.400;2023-03-15T07:53:02;18.67;;;7.53;;
48006;SDS011;33771;48.180;11.400;2023-03-15T07:55:28;14.43;;;7.80;;
48006;SDS011;33771;48.180;11.400;2023-03-15T07:57:55;14.47;;;7.87;;
48006;SDS011;33771;48.180;11.400;2023-03-15T08:00:20;15.70;;;7.50;;
48006;SDS011;33771;48.180;11.400;2023-03-15T08:02:46;14.47;;;7.93;;
48006;SDS011;33771;48.180;11.400;2023-03-15T08:05:12;15.83;;;7.77;;
48006;SDS011;33771;48.180;11.400;2023-03-15T08:07:38;13.23;;;7.07;;
48006;SDS011;33771;48.180;11.400;2023-03-15T08:10:04;12.83;;;7.13;;
48006;SDS011;33771;48.180;11.400;2023-03-15T08:12:30;13.33;;;6.73;;
48006;SDS011;33771;48.180;11.400;2023-03-15T08:14:57;13.83;;;7.70;;
48006;SDS011;33771;48.180;11.400;2023-03-15T08:17:22;14.10;;;7.70;;
48006;SDS011;33771;48.180;11.400;2023-03-15T08:19:48;11.60;;;6.70;;
48006;SDS011;33771;48.180;11.400;2023-03-15T08:22:16;13.53;;;6.40;;
48006;SDS011;33771;48.180;11.400;2023-03-15T08:24:41;14.03;;;6.87;;
48006;SDS011;33771;48.180;11.400;2023-03-15T08:27:07;13.07;;;6.30;;
48006;SDS011;33771;48.180;11.400;2023-03-15T08:29:33;11.60;;;6.00;;
48006;SDS011;33771;48.180;11.400;2023-03-15T08:31:59;12.90;;;6.60;;
48006;SDS011;33771;48.180;11.400;2023-03-15T08:34:25;15.60;;;6.80;;
48006;SDS011;33771;48.180;11.400;2023-03-15T08:36:53;16.03;;;6.40;;
48006;SDS011;33771;48.180;11.400;2023-03-15T08:39:21;13.07;;;5.83;;
48006;SDS011;33771;48.180;11.400;2023-03-15T08:41:47;17.87;;;7.87;;
48006;SDS011;33771;48.180;11.400;2023-03-15T08:44:14;13.23;;;5.77;;
48006;SDS011;33771;48.180;11.400;2023-03-15T08:46:39;15.20;;;6.77;;
48006;SDS011;33771;48.180;11.400;2023-03-15T08:49:05;12.13;;;5.47;;
48006;SDS011;33771;48.180;11.400;2023-03-15T08:51:30;11.40;;;5.07;;
48006;SDS011;33771;48.180;11.400;2023-03-15T08:53:58;11.63;;;5.30;;
48006;SDS011;33771;48.180;11.400;2023-03-15T08:56:27;10.83;;;4.73;;
48006;SDS011;33771;48.180;11.400;2023-03-15T08:58:55;13.60;;;5.23;;
48006;SDS011;33771;48.180;11.400;2023-03-15T09:01:21;10.30;;;5.03;;
48006;SDS011;33771;48.180;11.400;2023-03-15T09:03:46;15.03;;;4.33;;
48006;SDS011;33771;48.180;11.400;2023-03-15T09:06:12;11.60;;;4.80;;
48006;SDS011;33771;48.180;11.400;2023-03-15T09:08:38;7.87;;;4.60;;
48006;SDS011;33771;48.180;11.400;2023-03-15T09:11:03;10.80;;;4.37;;
48006;SDS011;33771;48.180;11.400;2023-03-15T09:13:29;11.27;;;4.63;;
48006;SDS011;33771;48.180;11.400;2023-03-15T09:15:55;11.30;;;4.50;;
48006;SDS011;33771;48.180;11.400;2023-03-15T09:18:21;13.43;;;4.63;;
48006;SDS011;33771;48.180;11.400;2023-03-15T09:20:50;11.43;;;4.70;;
48006;SDS011;33771;48.180;11.400;2023-03-15T09:23:16;12.07;;;4.23;;
48006;SDS011;33771;48.180;11.400;2023-03-15T09:25:41;13.23;;;4.43;;
48006;SDS011;33771;48.180;11.400;2023-03-15T09:28:10;7.33;;;3.60;;
48006;SDS011;33771;48.180;11.400;2023-03-15T09:30:36;10.30;;;4.27;;
48006;SDS011;33771;48.180;11.400;2023-03-15T09:33:02;12.30;;;4.07;;
48006;SDS011;33771;48.180;11.400;2023-03-15T09:35:28;9.57;;;4.10;;
48006;SDS011;33771;48.180;11.400;2023-03-15T09:37:54;12.27;;;3.77;;
48006;SDS011;33771;48.180;11.400;2023-03-15T09:40:24;14.33;;;3.80;;
48006;SDS011;33771;48.180;11.400;2023-03-15T09:46:07;13.00;;;3.90;;
48006;SDS011;33771;48.180;11.400;2023-03-15T09:48:52;14.27;;;3.95;;
48006;SDS011;33771;48.180;11.400;2023-03-15T09:51:34;6.97;;;2.80;;
48006;SDS011;33771;48.180;11.400;2023-03-15T09:54:12;8.13;;;3.73;;
48006;SDS011;33771;48.180;11.400;2023-03-15T09:56:51;12.13;;;3.80;;
48006;SDS011;33771;48.180;11.400;2023-03-15T09:59:20;9.30;;;3.80;;
48006;SDS011;33771;48.180;11.400;2023-03-15T10:04:26;10.30;;;3.67;;
48006;SDS011;33771;48.180;11.400;2023-03-15T10:06:55;8.57;;;3.70;;
48006;SDS011;33771;48.180;11.400;2023-03-15T10:09:23;10.03;;;3.13;;
48006;SDS011;33771;48.180;11.400;2023-03-15T10:14:31;9.73;;;3.10;;
48006;SDS011;33771;48.180;11.400;2023-03-15T10:16:58;14.43;;;3.20;;
48006;SDS011;33771;48.180;11.400;2023-03-15T10:19:35;7.53;;;3.10;;
48006;SDS011;33771;48.180;11.400;2023-03-15T10:30:25;10.83;;;2.60;;
48006;SDS011;33771;48.180;11.400;2023-03-15T10:35:40;7.27;;;2.60;;
48006;SDS011;33771;48.180;11.400;2023-03-15T10:38:13;9.57;;;2.70;;
48006;SDS011;33771;48.180;11.400;2023-03-15T10:40:49;5.93;;;2.23;;
48006;SDS011;33771;48.180;11.400;2023-03-15T10:43:30;7.73;;;2.13;;
48006;SDS011;33771;48.180;11.400;2023-03-15T10:48:35;5.80;;;2.03;;
48006;SDS011;33771;48.180;11.400;2023-03-15T10:51:18;7.78;;;2.33;;
48006;SDS011;33771;48.180;11.400;2023-03-15T10:53:55;12.83;;;2.43;;
48006;SDS011;33771;48.180;11.400;2023-03-15T10:58:51;6.90;;;1.80;;
48006;SDS011;33771;48.180;11.400;2023-03-15T11:01:24;5.00;;;1.80;;
48006;SDS011;33771;48.180;11.400;2023-03-15T11:04:00;7.13;;;2.00;;
48006;SDS011;33771;48.180;11.400;2023-03-15T11:06:30;6.87;;;1.83;;
48006;SDS011;33771;48.180;11.400;2023-03-15T11:09:13;6.53;;;1.87;;
48006;SDS011;33771;48.180;11.400;2023-03-15T11:17:02;3.80;;;1.80;;
48006;SDS011;33771;48.180;11.400;2023-03-15T11:19:30;5.10;;;1.70;;
48006;SDS011;33771;48.180;11.400;2023-03-15T11:21:58;6.17;;;1.70;;
48006;SDS011;33771;48.180;11.400;2023-03-15T11:24:28;6.60;;;1.60;;
48006;SDS011;33771;48.180;11.400;2023-03-15T11:27:00;6.83;;;1.60;;
48006;SDS011;33771;48.180;11.400;2023-03-15T11:29:35;7.70;;;1.60;;
48006;SDS011;33771;48.180;11.400;2023-03-15T11:32:09;6.60;;;1.30;;
48006;SDS011;33771;48.180;11.400;2023-03-15T11:35:05;5.07;;;1.30;;
48006;SDS011;33771;48.180;11.400;2023-03-15T11:40:12;7.30;;;1.30;;
48006;SDS011;33771;48.180;11.400;2023-03-15T11:45:18;2.13;;;1.20;;
48006;SDS011;33771;48.180;11.400;2023-03-15T11:47:53;4.97;;;1.50;;
48006;SDS011;33771;48.180;11.400;2023-03-15T11:50:23;7.77;;;1.20;;
48006;SDS011;33771;48.180;11.400;2023-03-15T11:52:49;4.47;;;1.20;;
48006;SDS011;33771;48.180;11.400;2023-03-15T11:55:18;4.53;;;1.37;;
48006;SDS011;33771;48.180;11.400;2023-03-15T11:57:49;3.80;;;1.30;;
48006;SDS011;33771;48.180;11.400;2023-03-15T12:00:17;3.43;;;1.57;;
48006;SDS011;33771;48.180;11.400;2023-03-15T12:03:24;4.03;;;1.00;;
48006;SDS011;33771;48.180;11.400;2023-03-15T12:08:48;7.17;;;1.97;;
48006;SDS011;33771;48.180;11.400;2023-03-15T12:16:21;4.50;;;1.35;;
48006;SDS011;33771;48.180;11.400;2023-03-15T12:18:49;3.13;;;1.30;;
48006;SDS011;33771;48.180;11.400;2023-03-15T12:21:21;3.83;;;1.10;;
48006;SDS011;33771;48.180;11.400;2023-03-15T12:26:56;2.20;;;1.00;;
48006;SDS011;33771;48.180;11.400;2023-03-15T12:29:23;3.47;;;1.40;;
48006;SDS011;33771;48.180;11.400;2023-03-15T12:37:20;3.47;;;1.07;;
48006;SDS011;33771;48.180;11.400;2023-03-15T12:39:50;2.40;;;1.10;;
48006;SDS011;33771;48.180;11.400;2023-03-15T12:53:27;3.47;;;1.30;;
48006;SDS011;33771;48.180;11.400;2023-03-15T12:56:18;2.77;;;1.40;;
48006;SDS011;33771;48.180;11.400;2023-03-15T12:58:53;4.90;;;1.50;;
48006;SDS011;33771;48.180;11.400;2023-03-15T13:01:23;2.63;;;1.10;;
48006;SDS011;33771;48.180;11.400;2023-03-15T13:03:53;4.03;;;1.50;;
48006;SDS011;33771;48.180;11.400;2023-03-15T13:12:26;3.70;;;1.00;;
48006;SDS011;33771;48.180;11.400;2023-03-15T13:15:02;2.93;;;1.20;;
48006;SDS011;33771;48.180;11.400;2023-03-15T13:28:37;2.40;;;1.13;;
48006;SDS011;33771;48.180;11.400;2023-03-15T13:31:11;3.03;;;1.13;;
48006;SDS011;33771;48.180;11.400;2023-03-15T13:33:47;1.67;;;1.00;;
48006;SDS011;33771;48.180;11.400;2023-03-15T13:36:15;3.23;;;1.03;;
48006;SDS011;33771;48.180;11.400;2023-03-15T13:38:45;2.70;;;1.13;;
48006;SDS011;33771;48.180;11.400;2023-03-15T13:41:24;3.53;;;1.37;;
48006;SDS011;33771;48.180;11.400;2023-03-15T13:43:53;3.63;;;1.30;;
48006;SDS011;33771;48.180;11.400;2023-03-15T13:46:21;4.70;;;1.13;;
48006;SDS011;33771;48.180;11.400;2023-03-15T13:48:49;2.70;;;1.10;;
48006;SDS011;33771;48.180;11.400;2023-03-15T13:51:29;1.93;;;0.83;;
48006;SDS011;33771;48.180;11.400;2023-03-15T13:59:31;8.75;;;1.40;;
48006;SDS011;33771;48.180;11.400;2023-03-15T14:02:02;4.93;;;1.37;;
48006;SDS011;33771;48.180;11.400;2023-03-15T14:04:29;4.73;;;1.10;;
48006;SDS011;33771;48.180;11.400;2023-03-15T14:10:04;2.07;;;1.10;;
48006;SDS011;33771;48.180;11.400;2023-03-15T14:12:42;2.53;;;1.20;;
48006;SDS011;33771;48.180;11.400;2023-03-15T14:15:14;5.17;;;1.17;;
48006;SDS011;33771;48.180;11.400;2023-03-15T14:18:12;4.50;;;1.10;;
48006;SDS011;33771;48.180;11.400;2023-03-15T14:23:09;3.40;;;1.10;;
48006;SDS011;33771;48.180;11.400;2023-03-15T14:25:37;3.30;;;1.80;;
48006;SDS011;33771;48.180;11.400;2023-03-15T14:28:03;3.63;;;1.27;;
48006;SDS011;33771;48.180;11.400;2023-03-15T14:30:30;4.00;;;1.53;;
48006;SDS011;33771;48.180;11.400;2023-03-15T14:33:00;1.97;;;1.17;;
48006;SDS011;33771;48.180;11.400;2023-03-15T14:35:39;3.77;;;1.17;;
48006;SDS011;33771;48.180;11.400;2023-03-15T14:40:49;8.50;;;1.60;;
48006;SDS011;33771;48.180;11.400;2023-03-15T14:43:15;6.57;;;1.20;;
48006;SDS011;33771;48.180;11.400;2023-03-15T14:45:42;2.47;;;1.00;;
48006;SDS011;33771;48.180;11.400;2023-03-15T14:48:11;2.83;;;1.30;;
48006;SDS011;33771;48.180;11.400;2023-03-15T14:50:48;1.60;;;0.90;;
48006;SDS011;33771;48.180;11.400;2023-03-15T14:53:15;3.00;;;1.10;;
48006;SDS011;33771;48.180;11.400;2023-03-15T14:55:43;2.47;;;1.10;;
48006;SDS011;33771;48.180;11.400;2023-03-15T14:58:16;2.80;;;1.27;;
48006;SDS011;33771;48.180;11.400;2023-03-15T15:00:44;4.37;;;1.20;;
48006;SDS011;33771;48.180;11.400;2023-03-15T15:03:17;3.30;;;1.30;;
48006;SDS011;33771;48.180;11.400;2023-03-15T15:05:46;4.67;;;1.17;;
48006;SDS011;33771;48.180;11.400;2023-03-15T15:08:13;2.10;;;1.10;;
48006;SDS011;33771;48.180;11.400;2023-03-15T15:10:43;1.83;;;1.30;;
48006;SDS011;33771;48.180;11.400;2023-03-15T15:15:46;5.53;;;1.40;;
48006;SDS011;33771;48.180;11.400;2023-03-15T15:18:12;2.70;;;1.17;;
48006;SDS011;33771;48.180;11.400;2023-03-15T15:20:38;4.43;;;1.40;;
48006;SDS011;33771;48.180;11.400;2023-03-15T15:23:07;5.13;;;1.47;;
48006;SDS011;33771;48.180;11.400;2023-03-15T15:25:34;2.10;;;1.30;;
48006;SDS011;33771;48.180;11.400;2023-03-15T15:27:59;3.13;;;1.10;;
48006;SDS011;33771;48.180;11.400;2023-03-15T15:30:25;3.77;;;1.50;;
48006;SDS011;33771;48.180;11.400;2023-03-15T15:32:52;3.73;;;1.43;;
48006;SDS011;33771;48.180;11.400;2023-03-15T15:35:20;2.17;;;1.27;;
48006;SDS011;33771;48.180;11.400;2023-03-15T15:37:47;4.10;;;1.13;;
48006;SDS011;33771;48.180;11.400;2023-03-15T15:40:15;3.37;;;1.20;;
48006;SDS011;33771;48.180;11.400;2023-03-15T15:42:45;2.90;;;1.23;;
48006;SDS011;33771;48.180;11.400;2023-03-15T15:45:12;6.83;;;1.33;;
48006;SDS011;33771;48.180;11.400;2023-03-15T15:47:40;3.10;;;1.40;;
48006;SDS011;33771;48.180;11.400;2023-03-15T15:50:06;3.87;;;1.10;;
48006;SDS011;33771;48.180;11.400;2023-03-15T15:52:40;5.70;;;1.20;;
48006;SDS011;33771;48.180;11.400;2023-03-15T15:55:17;3.30;;;1.00;;
48006;SDS011;33771;48.180;11.400;2023-03-15T15:57:48;3.63;;;1.07;;
48006;SDS011;33771;48.180;11.400;2023-03-15T16:00:16;4.63;;;1.10;;
48006;SDS011;33771;48.180;11.400;2023-03-15T16:02:44;2.03;;;1.00;;
48006;SDS011;33771;48.180;11.400;2023-03-15T16:05:11;5.80;;;1.23;;
48006;SDS011;33771;48.180;11.400;2023-03-15T16:07:37;4.20;;;1.20;;
48006;SDS011;33771;48.180;11.400;2023-03-15T16:10:04;3.63;;;1.60;;
48006;SDS011;33771;48.180;11.400;2023-03-15T16:12:31;5.33;;;1.90;;
48006;SDS011;33771;48.180;11.400;2023-03-15T16:14:58;5.90;;;2.03;;
48006;SDS011;33771;48.180;11.400;2023-03-15T16:17:23;4.07;;;1.47;;
48006;SDS011;33771;48.180;11.400;2023-03-15T16:19:50;3.03;;;1.60;;
48006;SDS011;33771;48.180;11.400;2023-03-15T16:22:16;4.40;;;1.97;;
48006;SDS011;33771;48.180;11.400;2023-03-15T16:24:44;4.90;;;1.70;;
48006;SDS011;33771;48.180;11.400;2023-03-15T16:27:15;4.10;;;1.60;;
48006;SDS011;33771;48.180;11.400;2023-03-15T16:29:44;9.67;;;2.20;;